Huvudsida
METAR-TAF:

METAR-TAF

Flygplatser :

Nice Côte d'Azur flygplats

Nice, Frankrike

latitud: 43-39N, longitud: 007-12E, höjd: 4 m

Aktuellt väderrapport

Denna rapport gjordes för 40 minuter sedan, klockan 10:00 UTC
Vind 10 kt från syd
Temperatur 27°C
Fuktighet 48%
Tryck 1014 hPa
Sikt 10 km eller mer
Få moln på en höjd av 3300 ft

METAR: LFMN 161000Z 19010KT 9999 FEW033 27/15 Q1014 NOSIG

Tid: 12:40 (10:40 UTC)

Väderprognos

Denna rapport gjordes för 2 timmar och 40 minuter sedan, klockan 08:00 UTC
Prognos gäller från 16 kl. 09 UTC till 17 kl. 15 UTC
Vind 10 kt från syd
Sikt 10 km eller mer
Inga moln under 1 500 m eller inga cumulonimbus
Blir
från 16 kl. 19 UTC till 16 kl. 21 UTC
Vind 4 kt varierande vindriktning
Blir
från 17 kl. 00 UTC till 17 kl. 02 UTC
Vind 8 kt från ost/nordost
Blir
från 17 kl. 07 UTC till 17 kl. 09 UTC
Vind 10 kt från syd/sydost

TAF: LFMN 160800Z 1609/1715 19010KT CAVOK BECMG 1619/1621 VRB04KT BECMG 1700/1702 06008KT BECMG 1707/1709 16010KT

Aktuella väderrapporter och prognoser från 4000 flygplatser (METAR- och TAF-rapporter).

De tillgängliga stationerna syns som gula och röda prickar på kartan.

För musen över prickarna för att se namnen på stationerna.

Klicka sedan för att få väderrapporter och prognoser.

För att ändra kartan: Klicka på de gröna knapparna med ett svart kors på för att zooma in; den gröna knappen med ett streck på för att zooma ut; eller på de gröna pilarna för angränsande kartor.


METAR-TAF: